Time;durP1;ratioP1;P1;durP2;ratioP2;P2;SDS_P1;SDS_P2;PMS_P1;PMS_P2;Temp;Humidity;BMP_temperature;BMP_pressure;BME280_temperature;BME280_humidity;BME280_pressure;Samples;Min_cycle;Max_cycle;Signal;HPM_P1;HPM_P2
2023/09/03 00:00:46;;;;;;;42.50;22.77;;;;;;;;;;5051839;28;20326;-60
2023/09/03 00:03:12;;;;;;;43.28;23.00;;;;;;;;;;5050807;28;20473;-60
2023/09/03 00:05:37;;;;;;;46.80;23.77;;;;;;;;;;5051386;28;20039;-60
2023/09/03 00:08:03;;;;;;;48.33;23.70;;;;;;;;;;5050917;28;20487;-60
2023/09/03 00:10:30;;;;;;;48.30;23.38;;;;;;;;;;5045407;28;20029;-60
2023/09/03 00:12:55;;;;;;;49.90;23.52;;;;;;;;;;5032475;28;20108;-60
2023/09/03 00:15:22;;;;;;;44.17;23.30;;;;;;;;;;5050761;28;20191;-60
2023/09/03 00:17:47;;;;;;;49.35;23.38;;;;;;;;;;5051597;28;20430;-60
2023/09/03 00:20:13;;;;;;;51.95;24.65;;;;;;;;;;5051411;28;20036;-60
2023/09/03 00:22:39;;;;;;;46.15;23.65;;;;;;;;;;5050693;28;20028;-60
2023/09/03 00:25:05;;;;;;;48.72;23.52;;;;;;;;;;5051243;28;20036;-60
2023/09/03 00:27:32;;;;;;;48.17;22.85;;;;;;;;;;5050144;28;20025;-60
2023/09/03 00:29:57;;;;;;;48.05;23.67;;;;;;;;;;5051076;28;20119;-60
2023/09/03 00:32:23;;;;;;;51.42;24.88;;;;;;;;;;5051167;28;20493;-59
2023/09/03 00:34:48;;;;;;;49.38;24.00;;;;;;;;;;5051392;28;20036;-60
2023/09/03 00:37:13;;;;;;;49.45;23.63;;;;;;;;;;5050916;28;20037;-60
2023/09/03 00:39:39;;;;;;;49.00;24.58;;;;;;;;;;5051409;28;20025;-60
2023/09/03 00:42:07;;;;;;;46.50;23.83;;;;;;;;;;5048794;28;20551;-60
2023/09/03 00:44:32;;;;;;;47.95;23.75;;;;;;;;;;5051513;28;20537;-60
2023/09/03 00:46:58;;;;;;;45.90;24.95;;;;;;;;;;5051386;28;20108;-60
2023/09/03 00:49:25;;;;;;;49.83;25.00;;;;;;;;;;5050712;28;20036;-60
2023/09/03 00:51:53;;;;;;;50.60;25.70;;;;;;;;;;5051696;28;20040;-60
2023/09/03 00:54:21;;;;;;;43.72;23.80;;;;;;;;;;5052090;28;20111;-60
2023/09/03 00:56:47;;;;;;;44.42;24.00;;;;;;;;;;5040998;28;20044;-60
2023/09/03 00:59:12;;;;;;;47.50;24.67;;;;;;;;;;5034714;28;20394;-60
2023/09/03 01:01:38;;;;;;;43.20;23.67;;;;;;;;;;5035541;28;20432;-60
2023/09/03 01:04:04;;;;;;;44.20;24.15;;;;;;;;;;5034871;28;20076;-59
2023/09/03 01:06:29;;;;;;;45.05;25.40;;;;;;;;;;5035058;28;20493;-60
2023/09/03 01:08:55;;;;;;;40.88;23.60;;;;;;;;;;5035203;28;20026;-60
2023/09/03 01:11:46;;;;;;;46.03;24.85;;;;;;;;;;5042074;28;20410;-60
2023/09/03 01:14:56;;;;;;;43.13;24.15;;;;;;;;;;5034099;28;20037;-59
2023/09/03 01:17:41;;;;;;;44.53;24.40;;;;;;;;;;5033000;28;20029;-59
2023/09/03 01:20:19;;;;;;;42.72;23.70;;;;;;;;;;5034440;28;20022;-59
2023/09/03 01:23:03;;;;;;;42.50;23.65;;;;;;;;;;5035412;28;20040;-60
2023/09/03 01:26:13;;;;;;;39.40;24.00;;;;;;;;;;5035030;28;20056;-60
2023/09/03 01:28:40;;;;;;;37.70;22.27;;;;;;;;;;5034648;28;20478;-60
2023/09/03 01:31:11;;;;;;;41.60;23.42;;;;;;;;;;5034193;28;20045;-60
2023/09/03 01:33:40;;;;;;;38.45;22.85;;;;;;;;;;5035160;28;20105;-60
2023/09/03 01:36:06;;;;;;;42.00;24.77;;;;;;;;;;5034062;28;20439;-59
2023/09/03 01:38:33;;;;;;;41.47;24.25;;;;;;;;;;5034621;28;20037;-58
2023/09/03 01:40:59;;;;;;;37.97;23.33;;;;;;;;;;5045768;28;20061;-58
2023/09/03 01:43:27;;;;;;;38.30;23.27;;;;;;;;;;5052608;28;20043;-59
2023/09/03 01:46:08;;;;;;;38.15;23.48;;;;;;;;;;5054431;28;20028;-59
2023/09/03 01:48:54;;;;;;;42.17;24.75;;;;;;;;;;5054396;28;20086;-59
2023/09/03 01:51:34;;;;;;;40.90;23.63;;;;;;;;;;5053750;28;20107;-58
2023/09/03 01:54:22;;;;;;;41.20;24.33;;;;;;;;;;5054593;28;20071;-59
2023/09/03 01:57:01;;;;;;;39.25;23.05;;;;;;;;;;5052546;28;20025;-59
2023/09/03 01:59:42;;;;;;;42.20;23.25;;;;;;;;;;5053390;28;20025;-58
2023/09/03 02:02:09;;;;;;;41.53;24.58;;;;;;;;;;5053584;28;20043;-58
2023/09/03 02:04:35;;;;;;;37.45;23.75;;;;;;;;;;5054524;28;20151;-59
2023/09/03 02:07:00;;;;;;;38.33;23.67;;;;;;;;;;5049870;28;20115;-58
2023/09/03 02:09:25;;;;;;;39.95;23.27;;;;;;;;;;5053256;28;20141;-59
2023/09/03 02:11:51;;;;;;;40.72;24.15;;;;;;;;;;5053849;28;20148;-58
2023/09/03 02:14:17;;;;;;;36.47;23.27;;;;;;;;;;5051818;28;20087;-60
2023/09/03 02:16:42;;;;;;;46.58;25.85;;;;;;;;;;5053948;28;20033;-59
2023/09/03 02:19:07;;;;;;;44.00;24.80;;;;;;;;;;5053138;28;20104;-59
2023/09/03 02:21:33;;;;;;;48.47;26.55;;;;;;;;;;5053572;28;20033;-59
2023/09/03 02:23:58;;;;;;;45.05;25.88;;;;;;;;;;5053183;28;20347;-59
2023/09/03 02:26:24;;;;;;;47.67;26.27;;;;;;;;;;5052653;28;20021;-59
2023/09/03 02:28:49;;;;;;;43.30;26.08;;;;;;;;;;5053864;28;20024;-58
2023/09/03 02:31:17;;;;;;;47.50;27.00;;;;;;;;;;5052722;28;20047;-58
2023/09/03 02:33:42;;;;;;;44.10;25.98;;;;;;;;;;5053730;28;20040;-59
2023/09/03 02:36:08;;;;;;;51.20;27.98;;;;;;;;;;5051679;28;20384;-59
2023/09/03 02:38:33;;;;;;;44.00;26.50;;;;;;;;;;5053190;28;20021;-59
2023/09/03 02:41:01;;;;;;;50.35;27.95;;;;;;;;;;5054904;28;20418;-60
2023/09/03 02:43:27;;;;;;;52.45;28.63;;;;;;;;;;5052871;28;20318;-60
2023/09/03 02:45:52;;;;;;;47.85;26.83;;;;;;;;;;5053387;28;20449;-59
2023/09/03 02:48:18;;;;;;;47.10;27.15;;;;;;;;;;5051376;28;20171;-58
2023/09/03 02:50:43;;;;;;;49.70;27.27;;;;;;;;;;5052295;28;20025;-60
2023/09/03 02:53:08;;;;;;;47.63;27.38;;;;;;;;;;5051321;28;20052;-59
2023/09/03 02:55:34;;;;;;;45.70;26.67;;;;;;;;;;5052754;28;20033;-60
2023/09/03 02:57:59;;;;;;;42.47;25.38;;;;;;;;;;5053222;28;20428;-60
2023/09/03 03:00:25;;;;;;;47.35;26.83;;;;;;;;;;5052176;28;20025;-60
2023/09/03 03:02:52;;;;;;;44.92;26.65;;;;;;;;;;5053335;28;20028;-59
2023/09/03 03:05:17;;;;;;;49.50;26.60;;;;;;;;;;5050516;28;20478;-59
2023/09/03 03:07:43;;;;;;;47.53;26.23;;;;;;;;;;5029850;28;20033;-59
2023/09/03 03:10:09;;;;;;;45.13;25.05;;;;;;;;;;5051875;28;20063;-58
2023/09/03 03:12:35;;;;;;;46.72;25.67;;;;;;;;;;5052388;28;20029;-59
2023/09/03 03:15:01;;;;;;;43.70;24.90;;;;;;;;;;5052455;28;20053;-59
2023/09/03 03:17:26;;;;;;;46.17;24.98;;;;;;;;;;5050225;28;20021;-59
2023/09/03 03:19:51;;;;;;;46.55;25.67;;;;;;;;;;5053267;28;20028;-59
2023/09/03 03:22:17;;;;;;;41.80;25.50;;;;;;;;;;5051924;28;20047;-59
2023/09/03 03:24:42;;;;;;;46.65;25.60;;;;;;;;;;5043647;28;20025;-59
2023/09/03 03:27:09;;;;;;;45.50;25.73;;;;;;;;;;5052935;28;20056;-59
2023/09/03 03:29:37;;;;;;;48.53;26.45;;;;;;;;;;5051925;28;20107;-59
2023/09/03 03:32:04;;;;;;;50.78;27.02;;;;;;;;;;5052589;28;20029;-59
2023/09/03 03:34:30;;;;;;;50.60;27.25;;;;;;;;;;5051479;28;20033;-59
2023/09/03 03:36:56;;;;;;;51.60;27.13;;;;;;;;;;5050989;28;20021;-59
2023/09/03 03:39:21;;;;;;;46.35;25.42;;;;;;;;;;5051643;28;20032;-59
2023/09/03 03:41:46;;;;;;;45.55;24.85;;;;;;;;;;5052439;28;20068;-59
2023/09/03 03:44:12;;;;;;;47.88;26.30;;;;;;;;;;5051761;28;20362;-59
2023/09/03 03:46:38;;;;;;;45.45;25.45;;;;;;;;;;5051860;28;20087;-58
2023/09/03 03:49:03;;;;;;;46.55;26.05;;;;;;;;;;5052275;28;20448;-59
2023/09/03 03:51:29;;;;;;;41.58;24.80;;;;;;;;;;5040263;28;20061;-59
2023/09/03 03:53:55;;;;;;;44.15;24.90;;;;;;;;;;5031963;28;20124;-59
2023/09/03 03:56:21;;;;;;;43.00;25.27;;;;;;;;;;5031393;28;20041;-59
2023/09/03 03:58:47;;;;;;;56.63;26.92;;;;;;;;;;5031844;28;20029;-59
2023/09/03 04:01:17;;;;;;;47.85;25.58;;;;;;;;;;5032087;28;20044;-59
2023/09/03 04:03:47;;;;;;;39.70;23.63;;;;;;;;;;5032364;28;20057;-59
2023/09/03 04:06:12;;;;;;;40.10;23.43;;;;;;;;;;5039678;28;20170;-58
2023/09/03 04:08:39;;;;;;;42.47;23.52;;;;;;;;;;5044348;28;20270;-58
2023/09/03 04:11:07;;;;;;;38.75;23.48;;;;;;;;;;5052066;28;20037;-58
2023/09/03 04:13:33;;;;;;;42.03;22.95;;;;;;;;;;5050862;28;20028;-60
2023/09/03 04:15:59;;;;;;;43.25;23.25;;;;;;;;;;5051950;28;20509;-59
2023/09/03 04:18:25;;;;;;;52.67;26.05;;;;;;;;;;5051006;28;20029;-58
2023/09/03 04:20:52;;;;;;;45.63;25.08;;;;;;;;;;5050680;28;20446;-59
2023/09/03 04:23:17;;;;;;;42.90;24.25;;;;;;;;;;5048123;28;20033;-59
2023/09/03 04:25:43;;;;;;;43.25;24.23;;;;;;;;;;5051870;28;20029;-59
2023/09/03 04:28:08;;;;;;;41.42;23.83;;;;;;;;;;5051910;28;20032;-59
2023/09/03 04:30:36;;;;;;;43.63;23.90;;;;;;;;;;5051034;28;20721;-60
2023/09/03 04:33:02;;;;;;;41.72;24.02;;;;;;;;;;5051940;28;20029;-59
2023/09/03 04:35:28;;;;;;;40.67;23.58;;;;;;;;;;5049243;28;20397;-59
2023/09/03 04:37:53;;;;;;;39.60;23.77;;;;;;;;;;5033046;28;20028;-58
2023/09/03 04:40:19;;;;;;;41.00;23.40;;;;;;;;;;5050616;28;20104;-58
2023/09/03 04:42:45;;;;;;;53.45;26.00;;;;;;;;;;5051555;28;20033;-59
2023/09/03 04:45:10;;;;;;;47.50;26.00;;;;;;;;;;5051333;28;20035;-58
2023/09/03 04:47:36;;;;;;;45.38;25.40;;;;;;;;;;5050730;28;20044;-59
2023/09/03 04:50:01;;;;;;;49.90;25.58;;;;;;;;;;5051636;28;20082;-59
2023/09/03 04:52:26;;;;;;;46.55;24.98;;;;;;;;;;5044383;28;20025;-58
2023/09/03 04:54:53;;;;;;;47.65;24.08;;;;;;;;;;5038198;28;20488;-59
2023/09/03 04:57:20;;;;;;;39.70;23.08;;;;;;;;;;5049486;28;20024;-58
2023/09/03 04:59:45;;;;;;;41.30;23.35;;;;;;;;;;5051524;28;20029;-58
2023/09/03 05:02:11;;;;;;;42.97;23.50;;;;;;;;;;5051267;28;20021;-58
2023/09/03 05:04:36;;;;;;;46.53;24.02;;;;;;;;;;5047759;28;20021;-58
2023/09/03 05:07:02;;;;;;;52.97;24.98;;;;;;;;;;5050187;28;20047;-59
2023/09/03 05:09:28;;;;;;;63.97;26.27;;;;;;;;;;5049064;28;20041;-59
2023/09/03 05:11:53;;;;;;;54.38;25.33;;;;;;;;;;5051184;28;20025;-59
2023/09/03 05:14:19;;;;;;;62.38;25.77;;;;;;;;;;5050386;28;20104;-62
2023/09/03 05:16:44;;;;;;;53.80;24.35;;;;;;;;;;5051460;28;20112;-60
2023/09/03 05:19:14;;;;;;;51.65;24.35;;;;;;;;;;5048758;28;20033;-59
2023/09/03 05:21:43;;;;;;;48.85;25.45;;;;;;;;;;5049170;28;20092;-59
2023/09/03 05:24:10;;;;;;;58.28;25.20;;;;;;;;;;5049797;28;20035;-59
2023/09/03 05:26:36;;;;;;;53.63;25.77;;;;;;;;;;5050501;28;20033;-59
2023/09/03 05:29:01;;;;;;;46.50;24.65;;;;;;;;;;5051187;28;20029;-59
2023/09/03 05:31:27;;;;;;;46.85;24.98;;;;;;;;;;5050790;28;20112;-59
2023/09/03 05:33:52;;;;;;;56.95;26.45;;;;;;;;;;5051252;28;20065;-59
2023/09/03 05:36:18;;;;;;;59.67;27.23;;;;;;;;;;5045711;28;20037;-59
2023/09/03 05:38:43;;;;;;;61.00;28.02;;;;;;;;;;5029625;28;20045;-60
2023/09/03 05:41:09;;;;;;;65.60;28.50;;;;;;;;;;5033608;28;20436;-60
2023/09/03 05:43:36;;;;;;;55.70;26.70;;;;;;;;;;5034238;28;20029;-60
2023/09/03 05:46:02;;;;;;;60.10;27.15;;;;;;;;;;5034741;28;20470;-59
2023/09/03 05:48:28;;;;;;;56.42;27.30;;;;;;;;;;5035191;28;20041;-60
2023/09/03 05:51:03;;;;;;;54.30;27.30;;;;;;;;;;5034643;28;20029;-60
2023/09/03 05:53:33;;;;;;;54.50;26.52;;;;;;;;;;5032612;28;20040;-59
2023/09/03 05:56:06;;;;;;;49.65;25.58;;;;;;;;;;5034851;28;20043;-59
2023/09/03 05:58:33;;;;;;;53.70;27.48;;;;;;;;;;5033885;28;20030;-58
2023/09/03 06:00:59;;;;;;;51.47;26.90;;;;;;;;;;5034713;28;20053;-59
2023/09/03 06:03:24;;;;;;;54.53;25.95;;;;;;;;;;5033701;28;20076;-58
2023/09/03 06:05:50;;;;;;;57.28;29.35;;;;;;;;;;5034582;28;20549;-59
2023/09/03 06:08:15;;;;;;;57.88;28.33;;;;;;;;;;5034544;28;20034;-58
2023/09/03 06:10:44;;;;;;;60.42;28.42;;;;;;;;;;5032448;28;20033;-59
2023/09/03 06:13:12;;;;;;;53.83;28.35;;;;;;;;;;5033206;28;20087;-59
2023/09/03 06:15:37;;;;;;;60.95;29.83;;;;;;;;;;5033417;28;20057;-59
2023/09/03 06:18:03;;;;;;;66.70;31.27;;;;;;;;;;5044014;28;20028;-58
2023/09/03 06:20:28;;;;;;;60.50;29.80;;;;;;;;;;5053698;28;20525;-59
2023/09/03 06:22:53;;;;;;;65.05;29.83;;;;;;;;;;5053832;28;20029;-58
2023/09/03 06:25:21;;;;;;;57.47;29.55;;;;;;;;;;5054030;28;20064;-59
2023/09/03 06:27:46;;;;;;;55.70;29.38;;;;;;;;;;5053807;28;20462;-59
2023/09/03 06:30:12;;;;;;;59.03;29.77;;;;;;;;;;5053978;28;20037;-59
2023/09/03 06:32:37;;;;;;;53.65;28.33;;;;;;;;;;5049968;28;20037;-60
2023/09/03 06:35:06;;;;;;;48.67;26.95;;;;;;;;;;5054082;28;20029;-59
2023/09/03 06:37:31;;;;;;;46.05;26.95;;;;;;;;;;5052949;28;20034;-59
2023/09/03 06:39:57;;;;;;;46.80;26.48;;;;;;;;;;5053708;28;20032;-59
2023/09/03 06:42:23;;;;;;;46.53;25.75;;;;;;;;;;5053243;28;20029;-59
2023/09/03 06:44:48;;;;;;;43.38;25.58;;;;;;;;;;5053234;28;20108;-59
2023/09/03 06:47:14;;;;;;;40.08;24.65;;;;;;;;;;5052223;28;20358;-59
2023/09/03 06:49:39;;;;;;;37.25;23.23;;;;;;;;;;5051321;28;20183;-60
2023/09/03 06:52:05;;;;;;;39.58;24.25;;;;;;;;;;5053047;28;20033;-60
2023/09/03 06:54:30;;;;;;;38.55;23.52;;;;;;;;;;5052611;28;20083;-60
2023/09/03 06:56:56;;;;;;;42.88;23.55;;;;;;;;;;5053661;28;20029;-60
2023/09/03 06:59:23;;;;;;;40.38;23.40;;;;;;;;;;5053206;28;20496;-60
2023/09/03 07:01:50;;;;;;;39.60;23.85;;;;;;;;;;5053594;28;20032;-60
2023/09/03 07:04:15;;;;;;;34.33;22.45;;;;;;;;;;5045501;28;20124;-60
2023/09/03 07:06:41;;;;;;;34.22;21.98;;;;;;;;;;5050432;28;20600;-60
2023/09/03 07:09:06;;;;;;;32.78;21.42;;;;;;;;;;5053354;28;20025;-60
2023/09/03 07:11:32;;;;;;;29.23;19.48;;;;;;;;;;5052317;28;20256;-60
2023/09/03 07:13:57;;;;;;;28.38;19.35;;;;;;;;;;5053076;28;20044;-60
2023/09/03 07:16:23;;;;;;;33.22;20.27;;;;;;;;;;5052508;28;20481;-59
2023/09/03 07:18:48;;;;;;;32.92;19.60;;;;;;;;;;5052301;28;20024;-60
2023/09/03 07:21:13;;;;;;;25.63;18.13;;;;;;;;;;5047510;28;20029;-61
2023/09/03 07:23:39;;;;;;;28.00;19.42;;;;;;;;;;5030832;28;20025;-60
2023/09/03 07:26:06;;;;;;;29.67;19.13;;;;;;;;;;5050518;28;20033;-59
2023/09/03 07:28:32;;;;;;;25.70;17.50;;;;;;;;;;5050759;28;20453;-59
2023/09/03 07:30:58;;;;;;;22.42;16.75;;;;;;;;;;5052893;28;20036;-59
2023/09/03 07:33:23;;;;;;;24.60;17.05;;;;;;;;;;5049838;28;20159;-59
2023/09/03 07:35:49;;;;;;;23.58;15.57;;;;;;;;;;5052328;28;20036;-59
2023/09/03 07:38:14;;;;;;;23.45;16.60;;;;;;;;;;5052810;28;20171;-60
2023/09/03 07:40:43;;;;;;;20.80;16.02;;;;;;;;;;5051589;28;20052;-60
2023/09/03 07:43:08;;;;;;;23.75;16.67;;;;;;;;;;5052540;28;20025;-59
2023/09/03 07:45:34;;;;;;;20.83;15.50;;;;;;;;;;5051862;28;20039;-60
2023/09/03 07:47:59;;;;;;;23.13;16.23;;;;;;;;;;5051397;28;20029;-60
2023/09/03 07:50:27;;;;;;;23.45;16.33;;;;;;;;;;5052416;28;20028;-60
2023/09/03 07:52:52;;;;;;;21.92;15.98;;;;;;;;;;5052108;28;20500;-60
2023/09/03 07:55:18;;;;;;;24.63;16.17;;;;;;;;;;5051224;28;20068;-60
2023/09/03 07:57:43;;;;;;;23.35;16.42;;;;;;;;;;5051353;28;20025;-60
2023/09/03 08:00:09;;;;;;;25.08;15.93;;;;;;;;;;5051690;28;20416;-60
2023/09/03 08:02:34;;;;;;;23.63;15.35;;;;;;;;;;5048915;28;20021;-60
2023/09/03 08:05:00;;;;;;;22.88;16.73;;;;;;;;;;5052265;28;20056;-60
2023/09/03 08:07:25;;;;;;;24.25;16.65;;;;;;;;;;5052016;28;20024;-60
2023/09/03 08:09:50;;;;;;;24.08;16.75;;;;;;;;;;5051340;28;20025;-60
2023/09/03 08:12:16;;;;;;;26.67;16.83;;;;;;;;;;5052042;28;20025;-60
2023/09/03 08:14:43;;;;;;;25.52;17.33;;;;;;;;;;5050845;28;20049;-60
2023/09/03 08:17:09;;;;;;;21.52;16.35;;;;;;;;;;5050522;28;20036;-60
2023/09/03 08:19:34;;;;;;;22.55;16.38;;;;;;;;;;5050683;28;20128;-62
2023/09/03 08:22:00;;;;;;;24.48;16.60;;;;;;;;;;5051933;28;20025;-60
2023/09/03 08:24:26;;;;;;;23.90;17.10;;;;;;;;;;5051869;28;20533;-63
2023/09/03 08:26:55;;;;;;;23.85;16.73;;;;;;;;;;5051366;28;20078;-59
2023/09/03 08:29:20;;;;;;;22.23;16.67;;;;;;;;;;5051643;28;20059;-60
2023/09/03 08:31:45;;;;;;;26.17;17.08;;;;;;;;;;5048961;28;20025;-59
2023/09/03 08:34:11;;;;;;;22.48;15.88;;;;;;;;;;5051925;28;20458;-59
2023/09/03 08:36:36;;;;;;;20.15;15.18;;;;;;;;;;5050893;28;20363;-59
2023/09/03 08:39:02;;;;;;;25.55;16.45;;;;;;;;;;5051716;28;20074;-59
2023/09/03 08:41:27;;;;;;;25.95;16.58;;;;;;;;;;5051342;28;20489;-59
2023/09/03 08:44:03;;;;;;;26.48;18.70;;;;;;;;;;5050987;28;20040;-60
2023/09/03 08:46:30;;;;;;;27.30;17.90;;;;;;;;;;5049649;28;20036;-60
2023/09/03 08:48:58;;;;;;;26.10;18.98;;;;;;;;;;5051565;28;20103;-64
2023/09/03 08:51:26;;;;;;;25.10;17.90;;;;;;;;;;5051463;28;20039;-60
2023/09/03 08:53:52;;;;;;;26.27;19.70;;;;;;;;;;5049391;28;20888;-60
2023/09/03 08:56:19;;;;;;;24.55;18.80;;;;;;;;;;5050764;28;20098;-60
2023/09/03 08:58:44;;;;;;;24.67;18.23;;;;;;;;;;5050573;28;20082;-60
2023/09/03 09:01:13;;;;;;;25.73;19.60;;;;;;;;;;5050909;28;20036;-60
2023/09/03 09:03:38;;;;;;;25.15;19.08;;;;;;;;;;5050369;28;20033;-61
2023/09/03 09:06:07;;;;;;;27.35;20.25;;;;;;;;;;5051240;28;20036;-60
2023/09/03 09:08:33;;;;;;;30.10;20.58;;;;;;;;;;5050566;28;20083;-60
2023/09/03 09:11:04;;;;;;;28.60;20.38;;;;;;;;;;5050739;28;20044;-60
2023/09/03 09:13:34;;;;;;;27.42;20.40;;;;;;;;;;5049910;28;20033;-60
2023/09/03 09:16:00;;;;;;;;;;;;;;;;;;5052508;28;20053;-60
2023/09/03 09:18:25;;;;;;;30.85;21.05;;;;;;;;;;5055353;28;19919;-61
2023/09/03 09:20:52;;;;;;;28.75;21.00;;;;;;;;;;5054061;28;20393;-60
2023/09/03 09:23:24;;;;;;;24.73;19.52;;;;;;;;;;5055306;28;20453;-60
2023/09/03 09:25:50;;;;;;;28.02;21.02;;;;;;;;;;5054276;28;20036;-60
2023/09/03 09:28:16;;;;;;;27.55;19.90;;;;;;;;;;5052051;28;20158;-60
2023/09/03 09:30:58;;;;;;;25.08;19.05;;;;;;;;;;5034080;28;20037;-60
2023/09/03 09:33:24;;;;;;;26.83;19.95;;;;;;;;;;5035053;28;20383;-60
2023/09/03 09:35:49;;;;;;;26.65;20.77;;;;;;;;;;5034377;28;20064;-60
2023/09/03 09:38:16;;;;;;;27.27;20.33;;;;;;;;;;5035123;28;20029;-61
2023/09/03 09:40:42;;;;;;;25.90;19.67;;;;;;;;;;5032739;28;20458;-58
2023/09/03 09:43:09;;;;;;;26.23;19.42;;;;;;;;;;5050627;28;20039;-60
2023/09/03 09:45:50;;;;;;;26.20;19.92;;;;;;;;;;5054237;28;20020;-60
2023/09/03 09:48:16;;;;;;;27.42;20.70;;;;;;;;;;5053755;28;20036;-60
2023/09/03 09:50:44;;;;;;;25.73;20.45;;;;;;;;;;5053484;28;20029;-60
2023/09/03 09:53:28;;;;;;;25.05;17.90;;;;;;;;;;5054234;28;20112;-60
2023/09/03 09:56:01;;;;;;;25.20;18.15;;;;;;;;;;5054008;28;20517;-60
2023/09/03 09:58:40;;;;;;;24.67;18.15;;;;;;;;;;5050868;28;20061;-59
2023/09/03 10:01:06;;;;;;;24.60;18.92;;;;;;;;;;5033382;28;20060;-59
2023/09/03 10:03:45;;;;;;;26.08;19.20;;;;;;;;;;5034649;28;20085;-60
2023/09/03 10:06:15;;;;;;;28.65;21.02;;;;;;;;;;5034440;28;20032;-59
2023/09/03 10:08:42;;;;;;;27.97;20.40;;;;;;;;;;5033747;28;20025;-61
2023/09/03 10:11:07;;;;;;;28.20;20.33;;;;;;;;;;5034379;28;20025;-59
2023/09/03 10:13:32;;;;;;;25.63;20.50;;;;;;;;;;5034438;28;20377;-59
2023/09/03 10:16:04;;;;;;;26.17;19.20;;;;;;;;;;5033694;28;20053;-60
2023/09/03 10:18:32;;;;;;;28.20;20.50;;;;;;;;;;5034189;28;20109;-59
2023/09/03 10:21:00;;;;;;;32.35;22.67;;;;;;;;;;5031956;28;20466;-59
2023/09/03 10:23:32;;;;;;;32.60;21.25;;;;;;;;;;5034174;28;20033;-59
2023/09/03 10:25:58;;;;;;;33.80;23.15;;;;;;;;;;5033081;28;20037;-60
2023/09/03 10:28:26;;;;;;;26.38;19.95;;;;;;;;;;5039729;28;20091;-59
2023/09/03 10:30:54;;;;;;;29.65;20.30;;;;;;;;;;5052567;28;20037;-60
2023/09/03 10:33:19;;;;;;;30.85;20.23;;;;;;;;;;5053566;28;20458;-60
2023/09/03 10:36:24;;;;;;;33.17;20.48;;;;;;;;;;5053049;28;20111;-60
2023/09/03 10:38:49;;;;;;;35.75;20.98;;;;;;;;;;5052589;28;20462;-60
2023/09/03 10:41:23;;;;;;;26.92;17.83;;;;;;;;;;5052986;28;20108;-60
2023/09/03 10:43:53;;;;;;;23.27;17.63;;;;;;;;;;5048412;28;20059;-60
2023/09/03 10:46:21;;;;;;;22.38;16.25;;;;;;;;;;5051692;28;20037;-59
2023/09/03 10:48:52;;;;;;;23.85;14.95;;;;;;;;;;5052785;28;20045;-60
2023/09/03 10:51:32;;;;;;;20.05;14.18;;;;;;;;;;5053482;28;20045;-60
2023/09/03 10:54:13;;;;;;;20.27;14.60;;;;;;;;;;5052719;28;20091;-60
2023/09/03 10:57:05;;;;;;;20.02;14.20;;;;;;;;;;5052803;28;20031;-60
2023/09/03 10:59:58;;;;;;;17.83;13.23;;;;;;;;;;5052663;28;20523;-60
2023/09/03 11:02:28;;;;;;;21.65;14.93;;;;;;;;;;5052095;28;20040;-59
2023/09/03 11:05:14;;;;;;;21.77;15.00;;;;;;;;;;5052536;28;20032;-60
2023/09/03 11:07:43;;;;;;;18.02;12.63;;;;;;;;;;5052652;28;20099;-60
2023/09/03 11:10:21;;;;;;;20.45;13.88;;;;;;;;;;5053617;28;20029;-59
2023/09/03 11:12:49;;;;;;;19.33;13.32;;;;;;;;;;5050704;28;20033;-59
2023/09/03 11:15:15;;;;;;;21.10;14.07;;;;;;;;;;5052000;28;20049;-60
2023/09/03 11:17:44;;;;;;;22.90;14.55;;;;;;;;;;5052038;28;20393;-60
2023/09/03 11:20:26;;;;;;;23.40;14.02;;;;;;;;;;5052997;28;20028;-59
2023/09/03 11:22:51;;;;;;;18.45;12.07;;;;;;;;;;5051965;28;20025;-61
2023/09/03 11:25:16;;;;;;;17.10;11.35;;;;;;;;;;5052879;28;20054;-60
2023/09/03 11:27:48;;;;;;;13.98;9.32;;;;;;;;;;5049315;28;20033;-60
2023/09/03 11:30:16;;;;;;;11.40;8.20;;;;;;;;;;5051318;28;20128;-59
2023/09/03 11:32:41;;;;;;;12.80;7.93;;;;;;;;;;5051521;28;20036;-59
2023/09/03 11:35:07;;;;;;;15.40;7.65;;;;;;;;;;5052473;28;20040;-59
2023/09/03 11:37:35;;;;;;;9.60;7.30;;;;;;;;;;5051219;28;20457;-59
2023/09/03 11:40:00;;;;;;;11.75;7.57;;;;;;;;;;5051702;28;20060;-59
2023/09/03 11:42:25;;;;;;;10.18;7.63;;;;;;;;;;5049705;28;20067;-59
2023/09/03 11:44:51;;;;;;;10.02;7.65;;;;;;;;;;5037826;28;20115;-59
2023/09/03 11:47:17;;;;;;;12.07;8.63;;;;;;;;;;5052810;28;20064;-59
2023/09/03 11:49:47;;;;;;;11.38;8.18;;;;;;;;;;5051656;28;20029;-59
2023/09/03 11:52:14;;;;;;;11.75;8.95;;;;;;;;;;5052272;28;20060;-59
2023/09/03 11:54:40;;;;;;;11.27;8.68;;;;;;;;;;5051992;28;20470;-59
2023/09/03 11:57:11;;;;;;;11.93;8.60;;;;;;;;;;5051652;28;20036;-59
2023/09/03 11:59:36;;;;;;;11.20;8.57;;;;;;;;;;5034984;28;20029;-61
2023/09/03 12:02:03;;;;;;;12.75;9.02;;;;;;;;;;5031335;28;20137;-59
2023/09/03 12:04:30;;;;;;;12.23;8.50;;;;;;;;;;5031980;28;20524;-60
2023/09/03 12:06:56;;;;;;;13.48;8.80;;;;;;;;;;5031784;28;20029;-59
2023/09/03 12:09:22;;;;;;;11.05;8.75;;;;;;;;;;5032222;28;20300;-59
2023/09/03 12:11:48;;;;;;;9.63;7.57;;;;;;;;;;5031121;28;20030;-59
2023/09/03 12:14:29;;;;;;;9.50;7.45;;;;;;;;;;5031746;28;20036;-58
2023/09/03 12:16:55;;;;;;;9.60;7.28;;;;;;;;;;5044590;28;20041;-59
2023/09/03 12:19:20;;;;;;;9.38;6.93;;;;;;;;;;5050563;28;20033;-59
2023/09/03 12:21:50;;;;;;;8.60;6.78;;;;;;;;;;5050176;28;20033;-59
2023/09/03 12:24:16;;;;;;;9.20;6.78;;;;;;;;;;5049772;28;20037;-59
2023/09/03 12:26:42;;;;;;;7.85;5.95;;;;;;;;;;5051666;28;20044;-59
2023/09/03 12:29:21;;;;;;;9.18;6.18;;;;;;;;;;5051298;28;20025;-59
2023/09/03 12:31:46;;;;;;;7.47;6.30;;;;;;;;;;5050881;28;20461;-58
2023/09/03 12:34:13;;;;;;;8.82;6.43;;;;;;;;;;5050535;28;20025;-58
2023/09/03 12:36:57;;;;;;;8.70;7.05;;;;;;;;;;5051899;28;20458;-59
2023/09/03 12:39:34;;;;;;;8.15;6.93;;;;;;;;;;5051614;28;20084;-58
2023/09/03 12:42:00;;;;;;;9.57;6.38;;;;;;;;;;5050766;28;20037;-58
2023/09/03 12:44:29;;;;;;;7.47;5.82;;;;;;;;;;5051335;28;20073;-58
2023/09/03 12:46:55;;;;;;;8.25;5.97;;;;;;;;;;5050142;28;20127;-59
2023/09/03 12:49:21;;;;;;;6.47;4.90;;;;;;;;;;5050699;28;20070;-58
2023/09/03 12:51:47;;;;;;;6.47;4.43;;;;;;;;;;5050501;28;20033;-59
2023/09/03 12:54:13;;;;;;;5.38;4.20;;;;;;;;;;5051444;28;20036;-60
2023/09/03 12:56:39;;;;;;;3.83;3.20;;;;;;;;;;5051340;28;20033;-59
2023/09/03 12:59:05;;;;;;;4.00;3.00;;;;;;;;;;5050674;28;20492;-59
2023/09/03 13:01:31;;;;;;;4.55;3.00;;;;;;;;;;5050460;28;20047;-59
2023/09/03 13:03:57;;;;;;;4.25;2.88;;;;;;;;;;5040413;28;20025;-58
2023/09/03 13:06:22;;;;;;;4.57;2.70;;;;;;;;;;5051418;28;20435;-58
2023/09/03 13:08:48;;;;;;;4.63;2.90;;;;;;;;;;5049356;28;20031;-59
2023/09/03 13:11:13;;;;;;;3.60;2.85;;;;;;;;;;5051119;28;20033;-58
2023/09/03 13:13:38;;;;;;;3.10;2.72;;;;;;;;;;5051311;28;20024;-58
2023/09/03 13:16:04;;;;;;;4.53;3.00;;;;;;;;;;5049118;28;20542;-58
2023/09/03 13:18:30;;;;;;;4.40;3.20;;;;;;;;;;5049215;28;20091;-59
2023/09/03 13:20:56;;;;;;;4.78;3.13;;;;;;;;;;5050739;28;20450;-59
2023/09/03 13:23:24;;;;;;;4.53;3.20;;;;;;;;;;5050939;28;20520;-59
2023/09/03 13:25:49;;;;;;;3.65;2.72;;;;;;;;;;5050320;28;20029;-58
2023/09/03 13:28:15;;;;;;;3.60;2.95;;;;;;;;;;5051252;28;20074;-59
2023/09/03 13:30:40;;;;;;;4.80;3.10;;;;;;;;;;5051243;28;20029;-59
2023/09/03 13:33:07;;;;;;;4.55;2.90;;;;;;;;;;5048601;28;20643;-59
2023/09/03 13:35:34;;;;;;;4.70;3.30;;;;;;;;;;5051169;28;20112;-59
2023/09/03 13:38:02;;;;;;;4.63;3.15;;;;;;;;;;5050775;28;20025;-59
2023/09/03 13:40:28;;;;;;;3.72;3.10;;;;;;;;;;5049758;28;20033;-59
2023/09/03 13:42:53;;;;;;;3.55;2.90;;;;;;;;;;5049861;28;20063;-59
2023/09/03 13:45:19;;;;;;;3.83;3.15;;;;;;;;;;5051022;28;20036;-59
2023/09/03 13:47:44;;;;;;;4.20;2.95;;;;;;;;;;5042460;28;20040;-60
2023/09/03 13:50:10;;;;;;;3.30;2.80;;;;;;;;;;5047376;28;20051;-60
2023/09/03 13:52:35;;;;;;;4.20;3.08;;;;;;;;;;5049595;28;20037;-60
2023/09/03 13:55:01;;;;;;;4.00;2.80;;;;;;;;;;5050032;28;20040;-59
2023/09/03 13:57:26;;;;;;;4.43;3.00;;;;;;;;;;5046239;28;20033;-61
2023/09/03 13:59:54;;;;;;;3.53;2.75;;;;;;;;;;5029113;28;20467;-60
2023/09/03 14:02:19;;;;;;;4.60;2.90;;;;;;;;;;5032453;28;20040;-60
2023/09/03 14:04:48;;;;;;;3.38;2.90;;;;;;;;;;5034586;28;20029;-59
2023/09/03 14:07:14;;;;;;;3.92;2.90;;;;;;;;;;5034532;28;20034;-60
2023/09/03 14:09:39;;;;;;;3.92;2.95;;;;;;;;;;5053253;28;20430;-61
2023/09/03 14:12:05;;;;;;;3.97;2.88;;;;;;;;;;5050173;28;20029;-61
2023/09/03 14:14:30;;;;;;;3.00;2.80;;;;;;;;;;5050700;28;20524;-61
2023/09/03 14:16:55;;;;;;;4.18;3.05;;;;;;;;;;5033409;28;20417;-61
2023/09/03 14:19:21;;;;;;;3.80;3.10;;;;;;;;;;5038075;28;20079;-61
2023/09/03 14:21:46;;;;;;;3.50;2.95;;;;;;;;;;5054427;28;20032;-62
2023/09/03 14:24:12;;;;;;;4.35;3.10;;;;;;;;;;5051109;28;20028;-61